Aérodrome :
LOGIN :

S'inscrire | Disclaimer

   EN    FR    IT 

 










Légende :    VFR   VFR Marginal   IFR   IFR Intensif   IFR Très Intensif
Visi : 
Plafond : 
>= 8 km
>= 3000ft
5 à 8 km
1000 à 3000 ft
1500m à 5 km
500 à 1000 ft
800 à 1500m
200 à 500 ft
< 800m
< 200 ft
Symboles :   Orages  Brouillard  Fortes neiges  Fortes précipitations  Vent > 20 kt
SIGMETs :   Divers  Orages  Givrage  Turbulence  Onde Orograph.  Cendres Volcan.






- Altitude de l'aérodrome : 359 ft
- Code IATA : BVA


LFOB - Beauvais

DERNIER METAR :
  • 232230Z AUTO 24011KT 9999 FEW019 13/11 Q1003 NOSIG

METARs EXPIRÉS :
  • 232200Z AUTO 26011KT 9999 BKN049 BKN062 OVC072 14/11 Q1003 NOSIG
  • 232130Z AUTO 27012KT 9999 FEW015 BKN052 OVC076 14/11 Q1003 NOSIG
  • 232100Z AUTO 28017KT 9999 BKN012/// BKN020/// BKN026/// ///TCU 15/13 Q1002 BECMG SCT030
  • 232030Z AUTO 21013KT 9999 FEW020/// SCT064/// BKN078/// ///CB 17/15 Q1001 BECMG SCT030
  • 232000Z AUTO 21010KT 9999 FEW026/// BKN056/// OVC078/// ///TCU 17/15 Q1002 TEMPO 19020G35KT 3000 SHRA BKN030CB

TAF TAF LFOB
Valide du 23 à 18h jusqu'au 24 à 18h UTC


231700Z 2318/2418 20010KT 9999 BKN030
TEMPO 2318/2321 3000 SHRA BKN030TCU
PROB40
TEMPO 2318/2321 19020G35KT TSRA BKN030CB
FM232100 27015G25KT 9999 SCT030
BECMG 2321/2323 26012KT
BECMG 2401/2404 20012KT
TEMPO 2409/2418 20020G30KT 3000 SHRA BKN025TCU
ATIS : +33 3 44 11 49 28



MET'MAP, la Météo Aéronautique d'un coup d'oeil ! - Copyright ORBIFLY Décembre 2007 - Disclaimer

ORBIFLY MET'MAP TEAM :

Programmation & Développement : Alexandra Zaïnal
Sur une idée originale de : Baudouin d'Aumeries
Assistance à la programmation : Marc-Olivier Méhu
Soutien technique & logistique : Manuel Goepfert

Contact : metmap@orbifly.com




SOURCES & CREDITS :

   NOAA